Lavras do Sul, Brazil
Current Conditions -  °F | °C
As of 6:00 PM on Sunday 21 Dec 2014 (Local Time) from SBSM Reporting Station
Overcast Overcast  
Wind Chill: 72°   Ceiling: 10000
Heat Index: 72°   Visibility: 6mi
Dew Point: 68°   Wind: 6mph
Humidity: 88%   Direction: 270°W
Pressure: 29.59"   Gusts: NA
Location:  30.81°S, 53.89°W
Report Text: SBSM 212000Z 27005KT 9999 FEW013 SCT015 OVC100 22/20 Q1002
Loading
Personal Weather Stations






























Interactive Weather Map New forecast layout! Learn more

10-Day Weather Forecast

Advertisements
Track Severe Weather on mobile